createdAt,value
2023-04-14T00:01:35.843Z,1.72
2023-04-14T00:03:40.975Z,1.75
2023-04-14T00:05:46.067Z,1.82
2023-04-14T00:07:51.421Z,1.98
2023-04-14T00:09:56.800Z,1.94
2023-04-14T00:12:02.071Z,2.10
2023-04-14T00:14:07.492Z,2.12
2023-04-14T00:16:14.078Z,1.94
2023-04-14T00:18:21.680Z,1.66
2023-04-14T00:20:27.117Z,1.52
2023-04-14T00:22:32.422Z,1.43
2023-04-14T00:24:43.518Z,1.67
2023-04-14T00:26:48.611Z,1.80
2023-04-14T00:28:54.098Z,2.05
2023-04-14T00:30:59.169Z,2.16
2023-04-14T00:33:04.233Z,2.13
2023-04-14T00:35:12.960Z,2.13
2023-04-14T00:37:17.938Z,1.94
2023-04-14T00:39:23.446Z,1.75
2023-04-14T00:41:28.595Z,1.64
2023-04-14T00:43:33.853Z,1.60
2023-04-14T00:45:50.318Z,1.52
2023-04-14T00:47:55.750Z,1.46
2023-04-14T00:50:01.126Z,1.44
2023-04-14T00:52:09.298Z,1.48
2023-04-14T00:54:16.415Z,1.61
2023-04-14T00:56:22.453Z,1.65
2023-04-14T00:58:29.099Z,1.66
2023-04-14T01:00:36.321Z,1.76
2023-04-14T01:02:41.931Z,1.75
2023-04-14T01:04:54.368Z,1.74
2023-04-14T01:07:00.116Z,1.66
2023-04-14T01:09:09.716Z,1.65
2023-04-14T01:11:26.524Z,1.52
2023-04-14T01:13:41.167Z,1.52
2023-04-14T01:15:55.619Z,1.53
2023-04-14T01:18:13.147Z,1.47
2023-04-14T01:20:27.457Z,1.38
2023-04-14T01:22:36.155Z,1.23
2023-04-14T01:25:09.127Z,1.18
2023-04-14T01:27:41.296Z,1.17
2023-04-14T01:30:05.955Z,0.97
2023-04-14T01:32:21.396Z,0.86
2023-04-14T01:34:35.158Z,0.76
2023-04-14T01:36:48.941Z,0.80
2023-04-14T01:38:57.615Z,0.77
2023-04-14T01:41:07.498Z,0.73
2023-04-14T01:43:16.739Z,0.76
2023-04-14T01:45:26.234Z,0.76
2023-04-14T01:47:35.071Z,0.75
2023-04-14T01:49:42.547Z,0.72
2023-04-14T01:51:50.272Z,0.72
2023-04-14T01:53:59.457Z,0.66
2023-04-14T01:56:07.964Z,0.67
2023-04-14T01:58:15.708Z,0.70
2023-04-14T02:00:22.879Z,0.77
2023-04-14T02:02:30.706Z,0.77
2023-04-14T02:04:40.653Z,0.75
2023-04-14T02:06:46.335Z,0.83
2023-04-14T02:08:52.408Z,0.98
2023-04-14T02:11:00.042Z,0.95
2023-04-14T02:13:11.108Z,0.91
2023-04-14T02:15:20.391Z,0.81
2023-04-14T02:17:29.144Z,0.68
2023-04-14T02:19:35.662Z,0.73
2023-04-14T02:21:46.007Z,0.75
2023-04-14T02:23:51.173Z,0.62
2023-04-14T02:26:03.588Z,0.57
2023-04-14T02:28:13.351Z,0.84
2023-04-14T02:30:25.346Z,0.78
2023-04-14T02:32:33.742Z,0.70
2023-04-14T02:34:47.805Z,0.65
2023-04-14T02:36:59.774Z,0.79
2023-04-14T02:39:14.421Z,0.75
2023-04-14T02:41:32.612Z,0.83
2023-04-14T02:43:45.917Z,0.84
2023-04-14T02:45:54.345Z,1.01
2023-04-14T02:48:05.652Z,0.92
2023-04-14T02:50:18.269Z,0.84
2023-04-14T02:52:37.876Z,1.00
2023-04-14T02:54:45.679Z,0.89
2023-04-14T02:56:52.513Z,0.85
2023-04-14T02:59:03.295Z,0.80
2023-04-14T03:01:10.861Z,0.93
2023-04-14T03:03:17.232Z,0.87
2023-04-14T03:05:24.070Z,0.82
2023-04-14T03:07:40.567Z,0.79
2023-04-14T03:09:48.140Z,0.79
2023-04-14T03:11:56.742Z,0.73
2023-04-14T03:14:02.837Z,0.76
2023-04-14T03:16:09.617Z,0.78
2023-04-14T03:18:17.078Z,0.91
2023-04-14T03:20:23.611Z,0.94
2023-04-14T03:22:32.009Z,0.95
2023-04-14T03:24:41.425Z,0.90
2023-04-14T03:26:48.625Z,0.89
2023-04-14T03:28:55.211Z,0.99
2023-04-14T03:31:03.955Z,0.97
2023-04-14T03:33:25.422Z,1.01
2023-04-14T03:35:31.337Z,0.82
2023-04-14T03:37:43.005Z,0.84
2023-04-14T03:39:53.557Z,0.93
2023-04-14T03:41:59.866Z,0.92
2023-04-14T03:44:06.883Z,0.95
2023-04-14T03:46:13.512Z,1.03
2023-04-14T03:48:25.535Z,1.10
2023-04-14T03:50:37.840Z,1.24
2023-04-14T03:52:47.056Z,1.20
2023-04-14T03:54:56.607Z,1.12
2023-04-14T03:57:04.894Z,1.14
2023-04-14T03:59:13.381Z,1.18
2023-04-14T04:01:25.790Z,1.26
2023-04-14T04:03:33.662Z,1.26
2023-04-14T04:05:41.281Z,1.22
2023-04-14T04:07:48.033Z,1.23
2023-04-14T04:09:58.731Z,1.25
2023-04-14T04:12:05.633Z,1.24
2023-04-14T04:14:12.537Z,1.29
2023-04-14T04:16:19.706Z,1.40
2023-04-14T04:18:28.794Z,1.37
2023-04-14T04:20:36.702Z,1.43
2023-04-14T04:22:45.320Z,1.40
2023-04-14T04:24:51.319Z,1.42
2023-04-14T04:27:07.880Z,1.36
2023-04-14T04:29:16.163Z,1.34
2023-04-14T04:31:23.360Z,1.38
2023-04-14T04:33:31.718Z,1.48
2023-04-14T04:35:39.227Z,1.42
2023-04-14T04:37:47.972Z,1.45
2023-04-14T04:39:53.204Z,1.42
2023-04-14T04:42:08.802Z,1.55
2023-04-14T04:44:15.278Z,1.48
2023-04-14T04:46:52.350Z,1.49
2023-04-14T04:49:01.187Z,1.52
2023-04-14T04:51:06.658Z,1.62
2023-04-14T04:53:12.657Z,1.69
2023-04-14T04:55:17.899Z,1.65
2023-04-14T04:57:25.523Z,1.51
2023-04-14T04:59:31.499Z,1.47
2023-04-14T05:01:36.792Z,1.45
2023-04-14T05:03:42.070Z,1.45
2023-04-14T05:05:47.115Z,1.51
2023-04-14T05:07:52.669Z,1.30
2023-04-14T05:09:57.714Z,1.19
2023-04-14T05:12:03.220Z,1.09
2023-04-14T05:14:10.905Z,1.16
2023-04-14T05:16:17.397Z,1.10
2023-04-14T05:18:22.697Z,1.12
2023-04-14T05:20:28.108Z,1.17
2023-04-14T05:22:33.144Z,1.11
2023-04-14T05:24:38.821Z,1.25
2023-04-14T05:26:58.385Z,1.15
2023-04-14T05:29:11.714Z,1.12
2023-04-14T05:31:16.772Z,1.11
2023-04-14T05:33:22.523Z,1.16
2023-04-14T05:35:27.626Z,1.14
2023-04-14T05:37:34.493Z,1.21
2023-04-14T05:39:41.161Z,1.24
2023-04-14T05:41:46.460Z,1.28
2023-04-14T05:43:51.548Z,1.26
2023-04-14T05:45:59.382Z,1.24
2023-04-14T05:48:05.182Z,1.25
2023-04-14T05:50:12.071Z,1.39
2023-04-14T05:52:17.104Z,1.44
2023-04-14T05:54:22.138Z,1.44
2023-04-14T05:56:27.189Z,1.49
2023-04-14T05:58:32.307Z,1.59
2023-04-14T06:00:37.698Z,1.84
2023-04-14T06:02:45.903Z,1.84
2023-04-14T06:04:51.853Z,1.83
2023-04-14T06:06:58.700Z,1.83
2023-04-14T06:09:03.730Z,1.84
2023-04-14T06:11:09.264Z,1.77
2023-04-14T06:13:15.267Z,1.81
2023-04-14T06:15:21.142Z,1.91
2023-04-14T06:17:26.298Z,2.07
2023-04-14T06:19:33.931Z,2.19
2023-04-14T06:21:39.299Z,2.29
2023-04-14T06:23:44.317Z,2.24
2023-04-14T06:25:50.138Z,2.35
2023-04-14T06:27:55.161Z,2.46
2023-04-14T06:30:03.031Z,2.36
2023-04-14T06:32:08.132Z,2.44
2023-04-14T06:34:13.185Z,2.38
2023-04-14T06:36:21.010Z,2.22
2023-04-14T06:38:27.209Z,2.11
2023-04-14T06:40:32.312Z,2.26
2023-04-14T06:42:37.316Z,2.31
2023-04-14T06:44:42.735Z,2.18
2023-04-14T06:46:47.751Z,2.07
2023-04-14T06:48:52.771Z,2.20
2023-04-14T06:50:58.410Z,2.60
2023-04-14T06:53:07.251Z,2.92
2023-04-14T06:55:13.046Z,3.11
2023-04-14T06:57:18.433Z,3.12
2023-04-14T06:59:28.046Z,3.07
2023-04-14T07:01:33.173Z,3.18
2023-04-14T07:03:38.798Z,3.40
2023-04-14T07:05:43.856Z,3.57
2023-04-14T07:07:49.642Z,3.75
2023-04-14T07:09:57.340Z,3.94
2023-04-14T07:12:02.583Z,4.16
2023-04-14T07:14:07.653Z,4.36
2023-04-14T07:16:13.114Z,4.58
2023-04-14T07:18:18.374Z,4.47
2023-04-14T07:20:23.426Z,4.29
2023-04-14T07:22:28.464Z,4.38
2023-04-14T07:24:33.700Z,4.71
2023-04-14T07:26:41.525Z,5.08
2023-04-14T07:28:47.377Z,5.37
2023-04-14T07:30:53.380Z,5.42
2023-04-14T07:32:58.562Z,5.27
2023-04-14T07:35:04.178Z,5.72
2023-04-14T07:37:09.198Z,6.21
2023-04-14T07:39:14.213Z,6.32
2023-04-14T07:41:19.207Z,6.73
2023-04-14T07:43:26.863Z,7.15
2023-04-14T07:45:32.779Z,6.78
2023-04-14T07:47:37.936Z,6.75
2023-04-14T07:49:43.001Z,6.74
2023-04-14T07:51:48.016Z,6.83
2023-04-14T07:53:53.533Z,7.07
2023-04-14T07:55:58.593Z,7.14
2023-04-14T07:58:03.628Z,6.41
2023-04-14T08:00:13.613Z,5.84
2023-04-14T08:02:18.682Z,5.96
2023-04-14T08:04:24.209Z,6.04
2023-04-14T08:06:29.772Z,6.05
2023-04-14T08:08:34.831Z,6.17
2023-04-14T08:10:41.705Z,6.29
2023-04-14T08:12:46.735Z,6.40
2023-04-14T08:14:51.986Z,6.57
2023-04-14T08:16:59.568Z,6.56
2023-04-14T08:19:05.046Z,6.57
2023-04-14T08:21:10.566Z,6.72
2023-04-14T08:23:15.813Z,7.23
2023-04-14T08:25:22.049Z,6.84
2023-04-14T08:27:27.141Z,6.58
2023-04-14T08:29:32.141Z,7.12
2023-04-14T08:31:37.212Z,7.86
2023-04-14T08:33:44.969Z,8.32
2023-04-14T08:35:57.881Z,8.71
2023-04-14T08:38:05.534Z,8.81
2023-04-14T08:40:14.109Z,9.03
2023-04-14T08:42:20.555Z,8.94
2023-04-14T08:44:25.983Z,8.97
2023-04-14T08:46:31.411Z,8.82
2023-04-14T08:48:40.928Z,8.95
2023-04-14T08:50:59.632Z,9.40
2023-04-14T08:53:06.901Z,9.40
2023-04-14T08:55:14.505Z,9.64
2023-04-14T08:57:22.616Z,9.46
2023-04-14T08:59:29.155Z,9.70
2023-04-14T09:01:36.221Z,9.83
2023-04-14T09:03:41.831Z,9.57
2023-04-14T09:05:50.966Z,9.51
2023-04-14T09:07:56.180Z,9.35
2023-04-14T09:10:01.745Z,9.69
2023-04-14T09:12:07.591Z,9.86
2023-04-14T09:14:13.646Z,10.32
2023-04-14T09:16:21.836Z,10.55
2023-04-14T09:18:28.836Z,10.72
2023-04-14T09:20:40.226Z,10.96
2023-04-14T09:22:49.128Z,11.13
2023-04-14T09:24:54.303Z,10.98
2023-04-14T09:26:59.470Z,10.70
2023-04-14T09:29:04.537Z,10.92
2023-04-14T09:31:10.103Z,11.20
2023-04-14T09:33:23.116Z,11.57
2023-04-14T09:35:48.696Z,12.03
2023-04-14T09:37:56.304Z,12.45
2023-04-14T09:40:01.572Z,12.59
2023-04-14T09:42:07.668Z,12.40
2023-04-14T09:44:12.766Z,12.20
2023-04-14T09:46:18.496Z,12.39
2023-04-14T09:48:24.483Z,12.67
2023-04-14T09:50:29.558Z,12.68
2023-04-14T09:52:43.370Z,12.87
2023-04-14T09:54:50.973Z,13.29
2023-04-14T09:56:56.863Z,13.58
2023-04-14T09:59:04.436Z,13.61
2023-04-14T10:01:17.242Z,13.72
2023-04-14T10:03:37.619Z,13.35
2023-04-14T10:05:43.120Z,13.30
2023-04-14T10:07:49.420Z,13.38
2023-04-14T10:09:57.043Z,13.20
2023-04-14T10:12:13.491Z,13.47
2023-04-14T10:14:18.800Z,13.39
2023-04-14T10:16:24.531Z,13.36
2023-04-14T10:18:29.902Z,13.23
2023-04-14T10:20:35.225Z,13.51
2023-04-14T10:22:41.128Z,13.65
2023-04-14T10:24:46.992Z,13.24
2023-04-14T10:26:56.073Z,13.47
2023-04-14T10:29:03.115Z,13.46
2023-04-14T10:31:13.260Z,13.64
2023-04-14T10:33:18.534Z,13.37
2023-04-14T10:35:25.203Z,13.48
2023-04-14T10:37:30.888Z,13.56
2023-04-14T10:39:36.878Z,13.44
2023-04-14T10:41:49.879Z,13.70
2023-04-14T10:43:57.633Z,13.58
2023-04-14T10:46:03.034Z,13.66
2023-04-14T10:48:08.895Z,13.66
2023-04-14T10:50:16.113Z,13.52
2023-04-14T10:52:35.001Z,13.42
2023-04-14T10:54:54.970Z,13.70
2023-04-14T10:57:14.794Z,13.41
2023-04-14T10:59:24.165Z,13.25
2023-04-14T11:01:32.940Z,13.43
2023-04-14T11:03:47.420Z,13.66
2023-04-14T11:05:54.685Z,13.99
2023-04-14T11:08:03.172Z,13.99
2023-04-14T11:10:35.894Z,13.80
2023-04-14T11:12:46.557Z,14.06
2023-04-14T11:14:59.222Z,14.29
2023-04-14T11:17:06.683Z,14.45
2023-04-14T11:19:17.665Z,15.13
2023-04-14T11:21:22.684Z,15.66
2023-04-14T11:23:31.145Z,15.81
2023-04-14T11:25:37.120Z,15.62
2023-04-14T11:27:42.824Z,15.42
2023-04-14T11:29:53.440Z,15.42
2023-04-14T11:32:07.172Z,15.38
2023-04-14T11:34:12.402Z,15.54
2023-04-14T11:36:18.183Z,15.82
2023-04-14T11:38:24.445Z,16.04
2023-04-14T11:40:30.716Z,16.44
2023-04-14T11:42:36.397Z,16.35
2023-04-14T11:44:41.814Z,15.93
2023-04-14T11:46:49.833Z,16.10
2023-04-14T11:48:58.362Z,16.15
2023-04-14T11:51:04.157Z,16.20
2023-04-14T11:53:12.356Z,16.46
2023-04-14T11:55:17.724Z,16.41
2023-04-14T11:57:23.041Z,16.87
2023-04-14T11:59:28.123Z,16.63
2023-04-14T12:04:07.732Z,15.74
2023-04-14T12:06:13.453Z,15.88
2023-04-14T12:08:18.459Z,15.67
2023-04-14T12:10:23.826Z,16.11
2023-04-14T12:12:29.327Z,16.04
2023-04-14T12:14:34.487Z,15.60
2023-04-14T12:16:39.832Z,15.08
2023-04-14T12:18:45.216Z,15.02
2023-04-14T12:21:07.496Z,14.77
2023-04-14T12:23:15.612Z,14.76
2023-04-14T12:25:20.666Z,14.91
2023-04-14T12:27:30.118Z,14.70
2023-04-14T12:29:36.218Z,14.21
2023-04-14T12:31:45.791Z,14.32
2023-04-14T12:33:54.824Z,14.20
2023-04-14T12:36:09.988Z,14.10
2023-04-14T12:38:15.907Z,13.95
2023-04-14T12:40:39.462Z,14.38
2023-04-14T12:42:49.295Z,14.24
2023-04-14T12:45:00.565Z,14.33
2023-04-14T12:47:06.013Z,14.50
2023-04-14T12:49:31.489Z,14.76
2023-04-14T12:51:42.162Z,15.16
2023-04-14T12:53:50.605Z,15.24
2023-04-14T12:56:13.398Z,15.20
2023-04-14T12:58:18.666Z,15.53
2023-04-14T13:00:24.881Z,15.89
2023-04-14T13:02:32.314Z,16.23
2023-04-14T13:04:37.704Z,17.13
2023-04-14T13:06:45.258Z,17.49
2023-04-14T13:08:52.223Z,17.97
2023-04-14T13:10:57.676Z,17.22
2023-04-14T13:13:02.891Z,16.81
2023-04-14T13:15:10.014Z,16.57
2023-04-14T13:17:35.629Z,16.34
2023-04-14T13:19:41.137Z,16.32
2023-04-14T13:21:48.702Z,16.30
2023-04-14T13:23:53.943Z,16.58
2023-04-14T13:25:59.428Z,17.35
2023-04-14T13:28:04.411Z,17.31
2023-04-14T13:30:12.518Z,17.29
2023-04-14T13:32:18.498Z,17.30
2023-04-14T13:34:23.963Z,17.66
2023-04-14T13:36:29.870Z,17.96
2023-04-14T13:38:37.516Z,17.64
2023-04-14T13:40:42.784Z,18.40
2023-04-14T13:42:47.790Z,18.58
2023-04-14T13:44:52.917Z,18.31
2023-04-14T13:46:58.318Z,18.48
2023-04-14T13:49:03.915Z,18.01
2023-04-14T13:51:09.369Z,18.06
2023-04-14T13:53:14.954Z,18.39
2023-04-14T13:55:23.054Z,19.27
2023-04-14T13:57:28.091Z,19.68
2023-04-14T13:59:33.326Z,19.26
2023-04-14T14:01:38.416Z,19.48
2023-04-14T14:03:44.437Z,19.87
2023-04-14T14:05:49.625Z,20.63
2023-04-14T14:07:54.672Z,21.49
2023-04-14T14:09:59.759Z,21.39
2023-04-14T14:12:07.914Z,21.77
2023-04-14T14:14:13.063Z,21.72
2023-04-14T14:16:33.124Z,22.40
2023-04-14T14:18:41.813Z,22.60
2023-04-14T14:20:47.626Z,22.45
2023-04-14T14:22:52.756Z,22.52
2023-04-14T14:25:10.611Z,22.72
2023-04-14T14:27:23.194Z,22.42
2023-04-14T14:29:28.332Z,21.80
2023-04-14T14:31:33.475Z,22.48
2023-04-14T14:33:38.605Z,24.12
2023-04-14T14:35:43.812Z,23.71
2023-04-14T14:37:48.826Z,23.69
2023-04-14T14:39:54.165Z,23.87
2023-04-14T14:41:59.486Z,24.55
2023-04-14T14:44:07.281Z,23.28
2023-04-14T14:46:13.044Z,24.01
2023-04-14T14:48:18.107Z,23.49
2023-04-14T14:50:23.396Z,22.74
2023-04-14T14:52:31.670Z,22.29
2023-04-14T14:54:36.830Z,22.45
2023-04-14T14:56:42.098Z,22.85
2023-04-14T14:58:47.449Z,23.58
2023-04-14T15:00:56.098Z,25.71
2023-04-14T15:03:01.159Z,25.28
2023-04-14T15:05:07.440Z,24.27
2023-04-14T15:07:12.636Z,23.87
2023-04-14T15:09:17.834Z,22.17
2023-04-14T15:11:23.196Z,21.39
2023-04-14T15:13:29.536Z,20.45
2023-04-14T15:15:36.978Z,19.33
2023-04-14T15:17:44.901Z,19.76
2023-04-14T15:19:50.025Z,21.40
2023-04-14T15:21:55.054Z,22.57
2023-04-14T15:24:00.372Z,23.46
2023-04-14T15:26:06.537Z,23.61
2023-04-14T15:28:13.092Z,23.26
2023-04-14T15:30:18.637Z,23.21
2023-04-14T15:32:26.915Z,23.69
2023-04-14T15:34:34.519Z,24.30
2023-04-14T15:36:39.687Z,25.13
2023-04-14T15:38:47.401Z,25.55
2023-04-14T15:40:52.403Z,25.71
2023-04-14T15:42:57.694Z,24.49
2023-04-14T15:45:02.741Z,22.52
2023-04-14T15:47:08.158Z,23.93
2023-04-14T15:49:13.171Z,24.49
2023-04-14T15:51:21.542Z,25.30
2023-04-14T15:53:27.127Z,26.03
2023-04-14T15:55:32.274Z,25.66
2023-04-14T15:57:38.165Z,26.40
2023-04-14T15:59:43.358Z,27.62
2023-04-14T16:01:48.463Z,26.05
2023-04-14T16:03:54.300Z,25.51
2023-04-14T16:06:07.364Z,25.74
2023-04-14T16:08:15.308Z,25.97
2023-04-14T16:10:20.574Z,26.60
2023-04-14T16:12:27.626Z,26.49
2023-04-14T16:14:35.315Z,25.12
2023-04-14T16:16:40.338Z,25.16
2023-04-14T16:18:45.881Z,24.94
2023-04-14T16:20:50.995Z,25.27
2023-04-14T16:22:56.430Z,24.97
2023-04-14T16:25:04.490Z,24.70
2023-04-14T16:27:09.514Z,24.71
2023-04-14T16:29:14.763Z,24.83
2023-04-14T16:31:19.972Z,24.56
2023-04-14T16:33:25.364Z,24.15
2023-04-14T16:35:33.230Z,23.50
2023-04-14T16:37:38.465Z,23.05
2023-04-14T16:39:44.274Z,23.22
2023-04-14T16:41:52.119Z,23.60
2023-04-14T16:43:57.398Z,24.09
2023-04-14T16:46:08.029Z,23.46
2023-04-14T16:48:13.881Z,23.57
2023-04-14T16:50:19.379Z,23.37
2023-04-14T16:52:27.305Z,22.76
2023-04-14T16:54:32.833Z,22.25
2023-04-14T16:56:38.252Z,21.07
2023-04-14T16:58:46.118Z,20.36
2023-04-14T17:00:51.604Z,18.93
2023-04-14T17:02:57.078Z,18.16
2023-04-14T17:05:03.664Z,18.19
2023-04-14T17:07:08.798Z,17.72
2023-04-14T17:09:13.801Z,17.47
2023-04-14T17:11:18.815Z,17.04
2023-04-14T17:13:24.171Z,16.67
2023-04-14T17:15:31.777Z,16.57
2023-04-14T17:17:36.913Z,16.70
2023-04-14T17:19:41.984Z,16.98
2023-04-14T17:21:47.914Z,17.21
2023-04-14T17:23:53.250Z,17.02
2023-04-14T17:25:58.856Z,16.93
2023-04-14T17:28:04.541Z,17.09
2023-04-14T17:30:12.360Z,16.94
2023-04-14T17:32:20.876Z,16.39
2023-04-14T17:34:26.612Z,15.96
2023-04-14T17:36:31.815Z,15.53
2023-04-14T17:38:38.749Z,15.06
2023-04-14T17:40:44.265Z,14.59
2023-04-14T17:42:49.333Z,14.34
2023-04-14T17:44:54.678Z,13.97
2023-04-14T17:47:01.057Z,13.55
2023-04-14T17:49:08.695Z,13.41
2023-04-14T17:51:14.401Z,13.06
2023-04-14T17:53:19.880Z,12.87
2023-04-14T17:55:25.232Z,12.54
2023-04-14T17:57:30.921Z,12.34
2023-04-14T17:59:36.186Z,12.14
2023-04-14T18:01:41.385Z,12.02
2023-04-14T18:03:46.583Z,11.85
2023-04-14T18:05:54.542Z,11.69
2023-04-14T18:07:59.764Z,11.41
2023-04-14T18:10:05.138Z,11.15
2023-04-14T18:12:10.853Z,10.94
2023-04-14T18:14:15.934Z,10.77
2023-04-14T18:16:21.283Z,10.59
2023-04-14T18:18:27.524Z,10.32
2023-04-14T18:20:32.822Z,10.16
2023-04-14T18:22:40.749Z,9.96
2023-04-14T18:24:48.486Z,9.84
2023-04-14T18:26:54.195Z,9.70
2023-04-14T18:29:00.057Z,9.54
2023-04-14T18:31:05.241Z,9.35
2023-04-14T18:33:10.217Z,9.18
2023-04-14T18:35:15.883Z,9.06
2023-04-14T18:37:20.910Z,8.91
2023-04-14T18:39:28.798Z,8.71
2023-04-14T18:41:33.937Z,8.53
2023-04-14T18:43:39.348Z,8.35
2023-04-14T18:45:49.043Z,8.13
2023-04-14T18:47:54.092Z,7.91
2023-04-14T18:49:59.089Z,7.77
2023-04-14T18:52:05.298Z,7.59
2023-04-14T18:54:10.598Z,7.40
2023-04-14T18:56:18.726Z,7.32
2023-04-14T18:58:23.936Z,7.26
2023-04-14T19:00:30.034Z,7.14
2023-04-14T19:02:35.167Z,7.07
2023-04-14T19:04:40.276Z,6.95
2023-04-14T19:06:45.262Z,6.88
2023-04-14T19:08:50.258Z,6.75
2023-04-14T19:10:55.271Z,6.72
2023-04-14T19:13:02.901Z,6.68
2023-04-14T19:15:09.834Z,6.57
2023-04-14T19:17:14.818Z,6.46
2023-04-14T19:19:19.829Z,6.37
2023-04-14T19:21:25.106Z,6.35
2023-04-14T19:23:30.276Z,6.25
2023-04-14T19:25:35.756Z,6.17
2023-04-14T19:27:43.174Z,6.07
2023-04-14T19:29:51.227Z,6.00
2023-04-14T19:31:56.433Z,5.92
2023-04-14T19:34:01.639Z,5.80
2023-04-14T19:36:14.313Z,5.73
2023-04-14T19:38:19.676Z,5.69
2023-04-14T19:40:25.437Z,5.59
2023-04-14T19:42:30.619Z,5.49
2023-04-14T19:44:35.822Z,5.42
2023-04-14T19:46:44.109Z,5.38
2023-04-14T19:48:49.146Z,5.47
2023-04-14T19:50:55.453Z,5.41
2023-04-14T19:53:00.480Z,5.27
2023-04-14T19:55:05.650Z,5.13
2023-04-14T19:57:10.785Z,5.09
2023-04-14T19:59:15.905Z,5.03
2023-04-14T20:01:21.160Z,5.01
2023-04-14T20:03:30.100Z,4.93
2023-04-14T20:05:37.450Z,4.89
2023-04-14T20:07:42.698Z,4.78
2023-04-14T20:09:47.750Z,4.72
2023-04-14T20:11:53.044Z,4.71
2023-04-14T20:13:58.021Z,4.69
2023-04-14T20:16:03.388Z,4.63
2023-04-14T20:18:09.008Z,4.61
2023-04-14T20:20:17.241Z,4.70
2023-04-14T20:22:22.534Z,4.71
2023-04-14T20:24:27.964Z,4.63
2023-04-14T20:26:35.116Z,4.60
2023-04-14T20:28:40.576Z,4.46
2023-04-14T20:30:48.290Z,4.35
2023-04-14T20:32:53.376Z,4.27
2023-04-14T20:34:58.896Z,4.17
2023-04-14T20:37:07.153Z,4.16
2023-04-14T20:39:12.637Z,4.22
2023-04-14T20:41:18.253Z,4.26
2023-04-14T20:43:23.604Z,4.34
2023-04-14T20:45:28.795Z,4.29
2023-04-14T20:47:33.844Z,4.17
2023-04-14T20:49:39.416Z,4.04
2023-04-14T20:51:47.122Z,4.03
2023-04-14T20:53:55.394Z,4.01
2023-04-14T20:56:00.576Z,3.94
2023-04-14T20:58:06.236Z,3.86
2023-04-14T21:00:15.565Z,3.80
2023-04-14T21:02:21.264Z,3.91
2023-04-14T21:04:26.581Z,3.89
2023-04-14T21:06:33.074Z,3.87
2023-04-14T21:08:39.831Z,3.85
2023-04-14T21:11:14.297Z,3.86
2023-04-14T21:15:30.764Z,3.73
2023-04-14T21:15:49.445Z,3.64
2023-04-14T21:18:01.118Z,3.68
2023-04-14T21:20:07.274Z,3.71
2023-04-14T21:22:12.656Z,3.68
2023-04-14T21:24:18.485Z,3.73
2023-04-14T21:26:27.081Z,3.69
2023-04-14T21:28:32.845Z,3.56
2023-04-14T21:30:37.855Z,3.43
2023-04-14T21:32:42.929Z,3.41
2023-04-14T21:34:48.062Z,3.35
2023-04-14T21:36:53.304Z,3.27
2023-04-14T21:38:58.449Z,3.29
2023-04-14T21:41:03.500Z,3.27
2023-04-14T21:43:11.170Z,3.36
2023-04-14T21:45:16.739Z,3.31
2023-04-14T21:47:22.410Z,3.38
2023-04-14T21:49:28.008Z,3.36
2023-04-14T21:51:33.035Z,3.25
2023-04-14T21:53:38.997Z,3.11
2023-04-14T21:55:44.232Z,3.14
2023-04-14T21:57:50.270Z,3.06
2023-04-14T21:59:58.789Z,3.04
2023-04-14T22:02:04.033Z,3.16
2023-04-14T22:04:11.403Z,3.10
2023-04-14T22:06:21.284Z,3.01
2023-04-14T22:08:26.438Z,3.00
2023-04-14T22:10:32.499Z,2.94
2023-04-14T22:12:37.899Z,2.95
2023-04-14T22:14:42.953Z,2.97
2023-04-14T22:16:50.871Z,2.88
2023-04-14T22:18:56.442Z,2.79
2023-04-14T22:21:01.692Z,2.75
2023-04-14T22:23:06.873Z,2.75
2023-04-14T22:25:13.176Z,2.71
2023-04-14T22:27:18.215Z,2.59
2023-04-14T22:29:23.292Z,2.52
2023-04-14T22:31:28.460Z,2.47
2023-04-14T22:33:36.168Z,2.41
2023-04-14T22:35:41.739Z,2.50
2023-04-14T22:37:47.026Z,2.45
2023-04-14T22:39:52.053Z,2.45
2023-04-14T22:41:57.083Z,2.43
2023-04-14T22:44:02.132Z,2.38
2023-04-14T22:46:07.577Z,2.48
2023-04-14T22:48:14.732Z,2.43
2023-04-14T22:50:22.712Z,2.51
2023-04-14T22:52:29.464Z,2.56
2023-04-14T22:54:34.477Z,2.51
2023-04-14T22:56:41.152Z,2.53
2023-04-14T22:58:46.154Z,2.54
2023-04-14T23:00:51.418Z,2.52
2023-04-14T23:02:59.475Z,2.51
2023-04-14T23:05:04.849Z,2.57
2023-04-14T23:07:12.705Z,2.57
2023-04-14T23:09:17.731Z,2.69
2023-04-14T23:11:23.197Z,2.68
2023-04-14T23:13:28.393Z,2.76
2023-04-14T23:15:33.546Z,2.74
2023-04-14T23:17:39.068Z,2.67
2023-04-14T23:19:44.367Z,2.74
2023-04-14T23:21:51.334Z,2.74
2023-04-14T23:23:58.995Z,2.79
2023-04-14T23:26:04.277Z,2.77
2023-04-14T23:28:10.101Z,2.78
2023-04-14T23:30:15.499Z,2.69
2023-04-14T23:32:21.108Z,2.74
2023-04-14T23:34:26.171Z,2.72
2023-04-14T23:36:31.248Z,2.66
2023-04-14T23:38:36.657Z,2.61
2023-04-14T23:40:44.909Z,2.51
2023-04-14T23:42:50.177Z,2.48
2023-04-14T23:44:55.220Z,2.56
2023-04-14T23:47:01.100Z,2.66
2023-04-14T23:49:24.408Z,2.67
2023-04-14T23:51:32.337Z,2.55
2023-04-14T23:53:37.413Z,2.47
2023-04-14T23:55:46.037Z,2.38
